Airfield :
LOGIN :

Register | Disclaimer

   EN    FR    IT 

 










Legend :    VFR   Marginal VFR   IFR   Intensive IFR   Very Intensive IFR
Visi :
Ceiling :
>= 8 km
>= 3000ft
5 to 8 km
1000 to 3000 ft
1500m to 5 km
500 to 1000 ft
800 to 1500m
200 to 500 ft
< 800m
< 200 ft
Symbols :   Thunderstorms  Fog  Heavy snow  Heavy precipitations  Wind > 20 kt
SIGMETs :     Misc.  Thunderstorms  Icing  Turbulence  Mountain Waves  Volcanic Ashes






- Airport Elevation : 124 ft
- IATA code : RNS


LFRN - Rennes

CURRENT METAR :
  • 271100Z AUTO 28016KT 9999 FEW038 BKN054 BKN220 16/09 Q1009 TEMPO 27015G25KT

EXPIRED METARs :
  • 271030Z AUTO 29017KT 9999 FEW038 BKN220 BKN240 17/09 Q1009 TEMPO 27015G25KT
  • 271000Z AUTO 29017KT 9999 SCT032 BKN240 17/10 Q1010 TEMPO 27015G25KT
  • 270930Z AUTO 28015KT 240V300 9999 FEW028 16/10 Q1009 TEMPO 27015G25KT
  • 270900Z AUTO 27013G25KT 9999 FEW022 BKN060 15/10 Q1010 NOSIG
  • 270830Z AUTO 28012KT CAVOK 14/10 Q1010 TEMPO 27015G25KT

TAF TAF LFRN
Valid from the 27 at 06:00 until the 28 at 06:00 UTC


270500Z 2706/2806 26010KT 9999 BKN030
PROB30
TEMPO 2706/2709 4000 SHRA BKN015
TEMPO 2709/2716 27015G25KT
TEMPO 2716/2718 4000 RA
BECMG 2716/2718 OVC012
TEMPO 2718/2806 3000 RA BKN005 BKN015TCU
BECMG 2718/2720 27015G30KT
BECMG 2804/2806 30010KT
ATIS : +33 2 99 67 72 50



MET'MAP, your aeronautical weather chart ! - Copyright ORBIFLY December 2007 - Disclaimer

ORBIFLY MET'MAP TEAM :

Programming & Development : Alexandra Zaïnal
Original concept : Baudouin d'Aumeries
Technical & hardware support : Manuel Goepfert
Assistance : Marc-Olivier Méhu




SOURCES & CREDITS :

   NOAA